sensor_id;sensor_type;location;lat;lon;timestamp;P1;durP1;ratioP1;P2;durP2;ratioP2
51194;SDS011;37259;49.972;19.850;2023-06-22T00:00:31;8.5;;;5.4;;
51194;SDS011;37259;49.972;19.850;2023-06-22T00:01:31;8.5;;;5.4;;
51194;SDS011;37259;49.972;19.850;2023-06-22T00:02:31;8.5;;;5.4;;
51194;SDS011;37259;49.972;19.850;2023-06-22T00:03:31;8.5;;;5.4;;
51194;SDS011;37259;49.972;19.850;2023-06-22T00:04:31;8.5;;;5.4;;
51194;SDS011;37259;49.972;19.850;2023-06-22T00:05:31;8.5;;;5.4;;
51194;SDS011;37259;49.972;19.850;2023-06-22T00:06:31;8.5;;;5.4;;
51194;SDS011;37259;49.972;19.850;2023-06-22T00:07:31;8.5;;;5.4;;
51194;SDS011;37259;49.972;19.850;2023-06-22T00:08:31;8.5;;;5.4;;
51194;SDS011;37259;49.972;19.850;2023-06-22T00:09:31;8.5;;;5.4;;
51194;SDS011;37259;49.972;19.850;2023-06-22T00:10:31;8.5;;;5.4;;
51194;SDS011;37259;49.972;19.850;2023-06-22T00:11:31;8.5;;;5.4;;
51194;SDS011;37259;49.972;19.850;2023-06-22T00:12:31;8.5;;;5.4;;
51194;SDS011;37259;49.972;19.850;2023-06-22T00:13:31;10;;;5.4;;
51194;SDS011;37259;49.972;19.850;2023-06-22T00:14:31;10;;;5.4;;
51194;SDS011;37259;49.972;19.850;2023-06-22T00:15:31;10;;;5.4;;
51194;SDS011;37259;49.972;19.850;2023-06-22T00:16:31;10;;;5.4;;
51194;SDS011;37259;49.972;19.850;2023-06-22T00:17:31;10;;;5.4;;
51194;SDS011;37259;49.972;19.850;2023-06-22T00:18:31;10;;;5.4;;
51194;SDS011;37259;49.972;19.850;2023-06-22T00:19:31;10;;;5.4;;
51194;SDS011;37259;49.972;19.850;2023-06-22T00:20:31;10;;;5.4;;
51194;SDS011;37259;49.972;19.850;2023-06-22T00:21:31;10;;;5.4;;
51194;SDS011;37259;49.972;19.850;2023-06-22T00:22:31;10;;;5.4;;
51194;SDS011;37259;49.972;19.850;2023-06-22T00:23:31;10;;;5.4;;
51194;SDS011;37259;49.972;19.850;2023-06-22T00:24:31;10;;;5.4;;
51194;SDS011;37259;49.972;19.850;2023-06-22T00:25:31;10;;;5.4;;
51194;SDS011;37259;49.972;19.850;2023-06-22T00:26:31;10;;;5.4;;
51194;SDS011;37259;49.972;19.850;2023-06-22T00:27:31;10;;;5.4;;
51194;SDS011;37259;49.972;19.850;2023-06-22T00:28:31;10;;;5.4;;
51194;SDS011;37259;49.972;19.850;2023-06-22T00:29:31;10;;;5.4;;
51194;SDS011;37259;49.972;19.850;2023-06-22T00:30:31;10;;;5.4;;
51194;SDS011;37259;49.972;19.850;2023-06-22T00:31:31;10;;;5.4;;
51194;SDS011;37259;49.972;19.850;2023-06-22T00:32:31;10;;;5.4;;
51194;SDS011;37259;49.972;19.850;2023-06-22T00:33:31;10;;;5.4;;
51194;SDS011;37259;49.972;19.850;2023-06-22T00:34:31;10;;;5.4;;
51194;SDS011;37259;49.972;19.850;2023-06-22T00:35:31;10;;;5.4;;
51194;SDS011;37259;49.972;19.850;2023-06-22T00:36:31;10;;;5.4;;
51194;SDS011;37259;49.972;19.850;2023-06-22T00:37:31;10;;;5.4;;
51194;SDS011;37259;49.972;19.850;2023-06-22T00:38:31;10;;;5.4;;
51194;SDS011;37259;49.972;19.850;2023-06-22T00:39:31;10;;;5.4;;
51194;SDS011;37259;49.972;19.850;2023-06-22T00:40:31;10;;;5.4;;
51194;SDS011;37259;49.972;19.850;2023-06-22T00:41:31;10;;;5.4;;
51194;SDS011;37259;49.972;19.850;2023-06-22T00:42:31;10;;;5.4;;
51194;SDS011;37259;49.972;19.850;2023-06-22T00:43:31;9.1;;;5.8;;
51194;SDS011;37259;49.972;19.850;2023-06-22T00:44:31;9.1;;;5.8;;
51194;SDS011;37259;49.972;19.850;2023-06-22T00:45:31;9.1;;;5.8;;
51194;SDS011;37259;49.972;19.850;2023-06-22T00:46:31;9.1;;;5.8;;
51194;SDS011;37259;49.972;19.850;2023-06-22T00:47:31;9.1;;;5.8;;
51194;SDS011;37259;49.972;19.850;2023-06-22T00:48:31;9.1;;;5.8;;
51194;SDS011;37259;49.972;19.850;2023-06-22T00:49:31;9.1;;;5.8;;
51194;SDS011;37259;49.972;19.850;2023-06-22T00:50:31;9.1;;;5.8;;
51194;SDS011;37259;49.972;19.850;2023-06-22T00:51:31;9.1;;;5.8;;
51194;SDS011;37259;49.972;19.850;2023-06-22T00:52:31;9.1;;;5.8;;
51194;SDS011;37259;49.972;19.850;2023-06-22T00:53:31;9.1;;;5.8;;
51194;SDS011;37259;49.972;19.850;2023-06-22T00:54:31;9.1;;;5.8;;
51194;SDS011;37259;49.972;19.850;2023-06-22T00:55:31;9.1;;;5.8;;
51194;SDS011;37259;49.972;19.850;2023-06-22T00:56:31;9.1;;;5.8;;
51194;SDS011;37259;49.972;19.850;2023-06-22T00:57:31;9.1;;;5.8;;
51194;SDS011;37259;49.972;19.850;2023-06-22T00:58:31;9.1;;;5.8;;
51194;SDS011;37259;49.972;19.850;2023-06-22T00:59:31;9.1;;;5.8;;
51194;SDS011;37259;49.972;19.850;2023-06-22T01:00:31;9.1;;;5.8;;
51194;SDS011;37259;49.972;19.850;2023-06-22T01:01:31;9.1;;;5.8;;
51194;SDS011;37259;49.972;19.850;2023-06-22T01:02:31;9.1;;;5.8;;
51194;SDS011;37259;49.972;19.850;2023-06-22T01:03:31;9.1;;;5.8;;
51194;SDS011;37259;49.972;19.850;2023-06-22T01:04:34;9.1;;;5.8;;
51194;SDS011;37259;49.972;19.850;2023-06-22T01:05:31;9.1;;;5.8;;
51194;SDS011;37259;49.972;19.850;2023-06-22T01:06:33;9.1;;;5.8;;
51194;SDS011;37259;49.972;19.850;2023-06-22T01:07:31;9.1;;;5.8;;
51194;SDS011;37259;49.972;19.850;2023-06-22T01:08:33;9.1;;;5.8;;
51194;SDS011;37259;49.972;19.850;2023-06-22T01:09:32;9.1;;;5.8;;
51194;SDS011;37259;49.972;19.850;2023-06-22T01:10:32;9.1;;;5.8;;
51194;SDS011;37259;49.972;19.850;2023-06-22T01:11:31;9.1;;;5.8;;
51194;SDS011;37259;49.972;19.850;2023-06-22T01:12:32;9.1;;;5.8;;
51194;SDS011;37259;49.972;19.850;2023-06-22T01:13:32;10.2;;;7.2;;
51194;SDS011;37259;49.972;19.850;2023-06-22T01:14:32;10.2;;;7.2;;
51194;SDS011;37259;49.972;19.850;2023-06-22T01:15:32;10.2;;;7.2;;
51194;SDS011;37259;49.972;19.850;2023-06-22T01:16:31;10.2;;;7.2;;
51194;SDS011;37259;49.972;19.850;2023-06-22T01:17:31;10.2;;;7.2;;
51194;SDS011;37259;49.972;19.850;2023-06-22T01:18:31;10.2;;;7.2;;
51194;SDS011;37259;49.972;19.850;2023-06-22T01:19:35;10.2;;;7.2;;
51194;SDS011;37259;49.972;19.850;2023-06-22T01:20:31;10.2;;;7.2;;
51194;SDS011;37259;49.972;19.850;2023-06-22T01:21:31;10.2;;;7.2;;
51194;SDS011;37259;49.972;19.850;2023-06-22T01:22:32;10.2;;;7.2;;
51194;SDS011;37259;49.972;19.850;2023-06-22T01:23:33;10.2;;;7.2;;
51194;SDS011;37259;49.972;19.850;2023-06-22T01:24:32;10.2;;;7.2;;
51194;SDS011;37259;49.972;19.850;2023-06-22T01:25:31;10.2;;;7.2;;
51194;SDS011;37259;49.972;19.850;2023-06-22T01:26:35;10.2;;;7.2;;
51194;SDS011;37259;49.972;19.850;2023-06-22T01:27:33;10.2;;;7.2;;
51194;SDS011;37259;49.972;19.850;2023-06-22T01:28:36;10.2;;;7.2;;
51194;SDS011;37259;49.972;19.850;2023-06-22T01:29:31;10.2;;;7.2;;
51194;SDS011;37259;49.972;19.850;2023-06-22T01:30:31;10.2;;;7.2;;
51194;SDS011;37259;49.972;19.850;2023-06-22T01:31:31;10.2;;;7.2;;
51194;SDS011;37259;49.972;19.850;2023-06-22T01:32:32;10.2;;;7.2;;
51194;SDS011;37259;49.972;19.850;2023-06-22T01:33:32;10.2;;;7.2;;
51194;SDS011;37259;49.972;19.850;2023-06-22T01:34:31;10.2;;;7.2;;
51194;SDS011;37259;49.972;19.850;2023-06-22T01:35:31;10.2;;;7.2;;
51194;SDS011;37259;49.972;19.850;2023-06-22T01:36:31;10.2;;;7.2;;
51194;SDS011;37259;49.972;19.850;2023-06-22T01:37:31;10.2;;;7.2;;
51194;SDS011;37259;49.972;19.850;2023-06-22T01:38:31;10.2;;;7.2;;
51194;SDS011;37259;49.972;19.850;2023-06-22T01:39:31;10.2;;;7.2;;
51194;SDS011;37259;49.972;19.850;2023-06-22T01:40:31;10.2;;;7.2;;
51194;SDS011;37259;49.972;19.850;2023-06-22T01:41:33;10.2;;;7.2;;
51194;SDS011;37259;49.972;19.850;2023-06-22T01:42:31;11;;;7.8;;
51194;SDS011;37259;49.972;19.850;2023-06-22T01:43:31;11;;;7.8;;
51194;SDS011;37259;49.972;19.850;2023-06-22T01:44:31;11;;;7.8;;
51194;SDS011;37259;49.972;19.850;2023-06-22T01:45:31;11;;;7.8;;
51194;SDS011;37259;49.972;19.850;2023-06-22T01:46:31;11;;;7.8;;
51194;SDS011;37259;49.972;19.850;2023-06-22T01:47:31;11;;;7.8;;
51194;SDS011;37259;49.972;19.850;2023-06-22T01:48:31;11;;;7.8;;
51194;SDS011;37259;49.972;19.850;2023-06-22T01:49:31;11;;;7.8;;
51194;SDS011;37259;49.972;19.850;2023-06-22T01:50:31;11;;;7.8;;
51194;SDS011;37259;49.972;19.850;2023-06-22T01:51:31;11;;;7.8;;
51194;SDS011;37259;49.972;19.850;2023-06-22T01:52:31;11;;;7.8;;
51194;SDS011;37259;49.972;19.850;2023-06-22T01:53:31;11;;;7.8;;
51194;SDS011;37259;49.972;19.850;2023-06-22T01:54:31;11;;;7.8;;
51194;SDS011;37259;49.972;19.850;2023-06-22T01:55:31;11;;;7.8;;
51194;SDS011;37259;49.972;19.850;2023-06-22T01:56:31;11;;;7.8;;
51194;SDS011;37259;49.972;19.850;2023-06-22T01:57:31;11;;;7.8;;
51194;SDS011;37259;49.972;19.850;2023-06-22T01:58:31;11;;;7.8;;
51194;SDS011;37259;49.972;19.850;2023-06-22T01:59:32;11;;;7.8;;
51194;SDS011;37259;49.972;19.850;2023-06-22T02:00:31;11;;;7.8;;
51194;SDS011;37259;49.972;19.850;2023-06-22T02:01:33;11;;;7.8;;
51194;SDS011;37259;49.972;19.850;2023-06-22T02:02:32;11;;;7.8;;
51194;SDS011;37259;49.972;19.850;2023-06-22T02:03:31;11;;;7.8;;
51194;SDS011;37259;49.972;19.850;2023-06-22T02:04:32;11;;;7.8;;
51194;SDS011;37259;49.972;19.850;2023-06-22T02:05:33;11;;;7.8;;
51194;SDS011;37259;49.972;19.850;2023-06-22T02:06:33;11;;;7.8;;
51194;SDS011;37259;49.972;19.850;2023-06-22T02:07:31;11;;;7.8;;
51194;SDS011;37259;49.972;19.850;2023-06-22T02:08:34;11;;;7.8;;
51194;SDS011;37259;49.972;19.850;2023-06-22T02:09:31;11;;;7.8;;
51194;SDS011;37259;49.972;19.850;2023-06-22T02:10:31;11;;;7.8;;
51194;SDS011;37259;49.972;19.850;2023-06-22T02:11:31;11;;;7.8;;
51194;SDS011;37259;49.972;19.850;2023-06-22T02:12:31;11.8;;;6;;
51194;SDS011;37259;49.972;19.850;2023-06-22T02:13:31;11.8;;;6;;
51194;SDS011;37259;49.972;19.850;2023-06-22T02:14:31;11.8;;;6;;
51194;SDS011;37259;49.972;19.850;2023-06-22T02:15:31;11.8;;;6;;
51194;SDS011;37259;49.972;19.850;2023-06-22T02:16:31;11.8;;;6;;
51194;SDS011;37259;49.972;19.850;2023-06-22T02:17:33;11.8;;;6;;
51194;SDS011;37259;49.972;19.850;2023-06-22T02:18:31;11.8;;;6;;
51194;SDS011;37259;49.972;19.850;2023-06-22T02:19:31;11.8;;;6;;
51194;SDS011;37259;49.972;19.850;2023-06-22T02:20:31;11.8;;;6;;
51194;SDS011;37259;49.972;19.850;2023-06-22T02:21:31;11.8;;;6;;
51194;SDS011;37259;49.972;19.850;2023-06-22T02:22:31;11.8;;;6;;
51194;SDS011;37259;49.972;19.850;2023-06-22T02:23:31;11.8;;;6;;
51194;SDS011;37259;49.972;19.850;2023-06-22T02:24:31;11.8;;;6;;
51194;SDS011;37259;49.972;19.850;2023-06-22T02:25:31;11.8;;;6;;
51194;SDS011;37259;49.972;19.850;2023-06-22T02:26:31;11.8;;;6;;
51194;SDS011;37259;49.972;19.850;2023-06-22T02:27:31;11.8;;;6;;
51194;SDS011;37259;49.972;19.850;2023-06-22T02:28:31;11.8;;;6;;
51194;SDS011;37259;49.972;19.850;2023-06-22T02:29:31;11.8;;;6;;
51194;SDS011;37259;49.972;19.850;2023-06-22T02:30:31;11.8;;;6;;
51194;SDS011;37259;49.972;19.850;2023-06-22T02:31:31;11.8;;;6;;
51194;SDS011;37259;49.972;19.850;2023-06-22T02:32:31;11.8;;;6;;
51194;SDS011;37259;49.972;19.850;2023-06-22T02:33:31;11.8;;;6;;
51194;SDS011;37259;49.972;19.850;2023-06-22T02:34:31;11.8;;;6;;
51194;SDS011;37259;49.972;19.850;2023-06-22T02:35:31;11.8;;;6;;
51194;SDS011;37259;49.972;19.850;2023-06-22T02:36:31;11.8;;;6;;
51194;SDS011;37259;49.972;19.850;2023-06-22T02:37:31;11.8;;;6;;
51194;SDS011;37259;49.972;19.850;2023-06-22T02:38:31;11.8;;;6;;
51194;SDS011;37259;49.972;19.850;2023-06-22T02:39:31;11.8;;;6;;
51194;SDS011;37259;49.972;19.850;2023-06-22T02:40:31;11.8;;;6;;
51194;SDS011;37259;49.972;19.850;2023-06-22T02:41:31;11.8;;;6;;
51194;SDS011;37259;49.972;19.850;2023-06-22T02:42:31;7.3;;;4.6;;
51194;SDS011;37259;49.972;19.850;2023-06-22T02:43:31;7.3;;;4.6;;
51194;SDS011;37259;49.972;19.850;2023-06-22T02:44:31;7.3;;;4.6;;
51194;SDS011;37259;49.972;19.850;2023-06-22T02:45:34;7.3;;;4.6;;
51194;SDS011;37259;49.972;19.850;2023-06-22T02:46:31;7.3;;;4.6;;
51194;SDS011;37259;49.972;19.850;2023-06-22T02:47:31;7.3;;;4.6;;
51194;SDS011;37259;49.972;19.850;2023-06-22T02:48:31;7.3;;;4.6;;
51194;SDS011;37259;49.972;19.850;2023-06-22T02:49:31;7.3;;;4.6;;
51194;SDS011;37259;49.972;19.850;2023-06-22T02:50:31;7.3;;;4.6;;
51194;SDS011;37259;49.972;19.850;2023-06-22T02:51:32;7.3;;;4.6;;
51194;SDS011;37259;49.972;19.850;2023-06-22T02:52:31;7.3;;;4.6;;
51194;SDS011;37259;49.972;19.850;2023-06-22T02:53:31;7.3;;;4.6;;
51194;SDS011;37259;49.972;19.850;2023-06-22T02:54:31;7.3;;;4.6;;
51194;SDS011;37259;49.972;19.850;2023-06-22T02:55:31;7.3;;;4.6;;
51194;SDS011;37259;49.972;19.850;2023-06-22T02:56:31;7.3;;;4.6;;
51194;SDS011;37259;49.972;19.850;2023-06-22T02:57:31;7.3;;;4.6;;
51194;SDS011;37259;49.972;19.850;2023-06-22T02:58:31;7.3;;;4.6;;
51194;SDS011;37259;49.972;19.850;2023-06-22T02:59:31;7.3;;;4.6;;
51194;SDS011;37259;49.972;19.850;2023-06-22T03:00:31;7.3;;;4.6;;
51194;SDS011;37259;49.972;19.850;2023-06-22T03:01:31;7.3;;;4.6;;
51194;SDS011;37259;49.972;19.850;2023-06-22T03:02:31;7.3;;;4.6;;
51194;SDS011;37259;49.972;19.850;2023-06-22T03:03:31;7.3;;;4.6;;
51194;SDS011;37259;49.972;19.850;2023-06-22T03:04:31;7.3;;;4.6;;
51194;SDS011;37259;49.972;19.850;2023-06-22T03:05:31;7.3;;;4.6;;
51194;SDS011;37259;49.972;19.850;2023-06-22T03:06:31;7.3;;;4.6;;
51194;SDS011;37259;49.972;19.850;2023-06-22T03:07:31;7.3;;;4.6;;
51194;SDS011;37259;49.972;19.850;2023-06-22T03:08:31;7.3;;;4.6;;
51194;SDS011;37259;49.972;19.850;2023-06-22T03:09:31;7.3;;;4.6;;
51194;SDS011;37259;49.972;19.850;2023-06-22T03:10:31;7.3;;;4.6;;
51194;SDS011;37259;49.972;19.850;2023-06-22T03:11:31;7.3;;;4.6;;
51194;SDS011;37259;49.972;19.850;2023-06-22T03:12:31;9.4;;;5.7;;
51194;SDS011;37259;49.972;19.850;2023-06-22T03:13:31;9.4;;;5.7;;
51194;SDS011;37259;49.972;19.850;2023-06-22T03:14:31;9.4;;;5.7;;
51194;SDS011;37259;49.972;19.850;2023-06-22T03:15:31;9.4;;;5.7;;
51194;SDS011;37259;49.972;19.850;2023-06-22T03:16:31;9.4;;;5.7;;
51194;SDS011;37259;49.972;19.850;2023-06-22T03:17:31;9.4;;;5.7;;
51194;SDS011;37259;49.972;19.850;2023-06-22T03:18:31;9.4;;;5.7;;
51194;SDS011;37259;49.972;19.850;2023-06-22T03:19:31;9.4;;;5.7;;
51194;SDS011;37259;49.972;19.850;2023-06-22T03:20:31;9.4;;;5.7;;
51194;SDS011;37259;49.972;19.850;2023-06-22T03:21:31;9.4;;;5.7;;
51194;SDS011;37259;49.972;19.850;2023-06-22T03:22:31;9.4;;;5.7;;
51194;SDS011;37259;49.972;19.850;2023-06-22T03:23:31;9.4;;;5.7;;
51194;SDS011;37259;49.972;19.850;2023-06-22T03:24:31;9.4;;;5.7;;
51194;SDS011;37259;49.972;19.850;2023-06-22T03:25:31;9.4;;;5.7;;
51194;SDS011;37259;49.972;19.850;2023-06-22T03:26:31;9.4;;;5.7;;
51194;SDS011;37259;49.972;19.850;2023-06-22T03:27:31;9.4;;;5.7;;
51194;SDS011;37259;49.972;19.850;2023-06-22T03:28:31;9.4;;;5.7;;
51194;SDS011;37259;49.972;19.850;2023-06-22T03:29:31;9.4;;;5.7;;
51194;SDS011;37259;49.972;19.850;2023-06-22T03:30:31;9.4;;;5.7;;
51194;SDS011;37259;49.972;19.850;2023-06-22T03:31:31;9.4;;;5.7;;
51194;SDS011;37259;49.972;19.850;2023-06-22T03:32:31;9.4;;;5.7;;
51194;SDS011;37259;49.972;19.850;2023-06-22T03:33:31;9.4;;;5.7;;
51194;SDS011;37259;49.972;19.850;2023-06-22T03:34:31;9.4;;;5.7;;
51194;SDS011;37259;49.972;19.850;2023-06-22T03:35:31;9.4;;;5.7;;
51194;SDS011;37259;49.972;19.850;2023-06-22T03:36:31;9.4;;;5.7;;
51194;SDS011;37259;49.972;19.850;2023-06-22T03:37:31;9.4;;;5.7;;
51194;SDS011;37259;49.972;19.850;2023-06-22T03:38:31;9.4;;;5.7;;
51194;SDS011;37259;49.972;19.850;2023-06-22T03:39:31;9.4;;;5.7;;
51194;SDS011;37259;49.972;19.850;2023-06-22T03:40:31;9.4;;;5.7;;
51194;SDS011;37259;49.972;19.850;2023-06-22T03:41:31;9.4;;;5.7;;
51194;SDS011;37259;49.972;19.850;2023-06-22T03:42:31;8.9;;;5.4;;
51194;SDS011;37259;49.972;19.850;2023-06-22T03:43:31;8.9;;;5.4;;
51194;SDS011;37259;49.972;19.850;2023-06-22T03:44:31;8.9;;;5.4;;
51194;SDS011;37259;49.972;19.850;2023-06-22T03:45:31;8.9;;;5.4;;
51194;SDS011;37259;49.972;19.850;2023-06-22T03:46:31;8.9;;;5.4;;
51194;SDS011;37259;49.972;19.850;2023-06-22T03:47:31;8.9;;;5.4;;
51194;SDS011;37259;49.972;19.850;2023-06-22T03:48:31;8.9;;;5.4;;
51194;SDS011;37259;49.972;19.850;2023-06-22T03:49:31;8.9;;;5.4;;
51194;SDS011;37259;49.972;19.850;2023-06-22T03:50:31;8.9;;;5.4;;
51194;SDS011;37259;49.972;19.850;2023-06-22T03:51:32;8.9;;;5.4;;
51194;SDS011;37259;49.972;19.850;2023-06-22T03:52:31;8.9;;;5.4;;
51194;SDS011;37259;49.972;19.850;2023-06-22T03:53:31;8.9;;;5.4;;
51194;SDS011;37259;49.972;19.850;2023-06-22T03:54:31;8.9;;;5.4;;
51194;SDS011;37259;49.972;19.850;2023-06-22T03:55:31;8.9;;;5.4;;
51194;SDS011;37259;49.972;19.850;2023-06-22T03:56:31;8.9;;;5.4;;
51194;SDS011;37259;49.972;19.850;2023-06-22T03:57:31;8.9;;;5.4;;
51194;SDS011;37259;49.972;19.850;2023-06-22T03:58:31;8.9;;;5.4;;
51194;SDS011;37259;49.972;19.850;2023-06-22T03:59:31;8.9;;;5.4;;
51194;SDS011;37259;49.972;19.850;2023-06-22T04:00:31;8.9;;;5.4;;
51194;SDS011;37259;49.972;19.850;2023-06-22T04:01:31;8.9;;;5.4;;
51194;SDS011;37259;49.972;19.850;2023-06-22T04:02:31;8.9;;;5.4;;
51194;SDS011;37259;49.972;19.850;2023-06-22T04:03:31;8.9;;;5.4;;
51194;SDS011;37259;49.972;19.850;2023-06-22T04:04:31;8.9;;;5.4;;
51194;SDS011;37259;49.972;19.850;2023-06-22T04:05:31;8.9;;;5.4;;
51194;SDS011;37259;49.972;19.850;2023-06-22T04:06:31;8.9;;;5.4;;
51194;SDS011;37259;49.972;19.850;2023-06-22T04:07:31;8.9;;;5.4;;
51194;SDS011;37259;49.972;19.850;2023-06-22T04:08:31;8.9;;;5.4;;
51194;SDS011;37259;49.972;19.850;2023-06-22T04:09:31;8.9;;;5.4;;
51194;SDS011;37259;49.972;19.850;2023-06-22T04:10:31;8.9;;;5.4;;
51194;SDS011;37259;49.972;19.850;2023-06-22T04:11:31;8.9;;;5.4;;
51194;SDS011;37259;49.972;19.850;2023-06-22T04:12:31;9.9;;;5.7;;
51194;SDS011;37259;49.972;19.850;2023-06-22T04:13:31;9.9;;;5.7;;
51194;SDS011;37259;49.972;19.850;2023-06-22T04:14:31;9.9;;;5.7;;
51194;SDS011;37259;49.972;19.850;2023-06-22T04:15:31;9.9;;;5.7;;
51194;SDS011;37259;49.972;19.850;2023-06-22T04:16:31;9.9;;;5.7;;
51194;SDS011;37259;49.972;19.850;2023-06-22T04:17:31;9.9;;;5.7;;
51194;SDS011;37259;49.972;19.850;2023-06-22T04:18:31;9.9;;;5.7;;
51194;SDS011;37259;49.972;19.850;2023-06-22T04:19:31;9.9;;;5.7;;
51194;SDS011;37259;49.972;19.850;2023-06-22T04:20:31;9.9;;;5.7;;
51194;SDS011;37259;49.972;19.850;2023-06-22T04:21:31;9.9;;;5.7;;
51194;SDS011;37259;49.972;19.850;2023-06-22T04:22:31;9.9;;;5.7;;
51194;SDS011;37259;49.972;19.850;2023-06-22T04:23:31;9.9;;;5.7;;
51194;SDS011;37259;49.972;19.850;2023-06-22T04:24:31;9.9;;;5.7;;
51194;SDS011;37259;49.972;19.850;2023-06-22T04:25:31;9.9;;;5.7;;
51194;SDS011;37259;49.972;19.850;2023-06-22T04:26:31;9.9;;;5.7;;
51194;SDS011;37259;49.972;19.850;2023-06-22T04:27:31;9.9;;;5.7;;
51194;SDS011;37259;49.972;19.850;2023-06-22T04:28:31;9.9;;;5.7;;
51194;SDS011;37259;49.972;19.850;2023-06-22T04:29:31;9.9;;;5.7;;
51194;SDS011;37259;49.972;19.850;2023-06-22T04:30:32;9.9;;;5.7;;
51194;SDS011;37259;49.972;19.850;2023-06-22T04:31:31;9.9;;;5.7;;
51194;SDS011;37259;49.972;19.850;2023-06-22T04:32:31;9.9;;;5.7;;
51194;SDS011;37259;49.972;19.850;2023-06-22T04:33:31;9.9;;;5.7;;
51194;SDS011;37259;49.972;19.850;2023-06-22T04:34:31;9.9;;;5.7;;
51194;SDS011;37259;49.972;19.850;2023-06-22T04:35:31;9.9;;;5.7;;
51194;SDS011;37259;49.972;19.850;2023-06-22T04:36:32;9.9;;;5.7;;
51194;SDS011;37259;49.972;19.850;2023-06-22T04:37:31;9.9;;;5.7;;
51194;SDS011;37259;49.972;19.850;2023-06-22T04:38:31;9.9;;;5.7;;
51194;SDS011;37259;49.972;19.850;2023-06-22T04:39:31;9.9;;;5.7;;
51194;SDS011;37259;49.972;19.850;2023-06-22T04:40:31;9.9;;;5.7;;
51194;SDS011;37259;49.972;19.850;2023-06-22T04:41:31;9.9;;;5.7;;
51194;SDS011;37259;49.972;19.850;2023-06-22T04:42:33;10.3;;;7.4;;
51194;SDS011;37259;49.972;19.850;2023-06-22T04:43:31;10.3;;;7.4;;
51194;SDS011;37259;49.972;19.850;2023-06-22T04:44:31;10.3;;;7.4;;
51194;SDS011;37259;49.972;19.850;2023-06-22T04:45:31;10.3;;;7.4;;
51194;SDS011;37259;49.972;19.850;2023-06-22T04:46:31;10.3;;;7.4;;
51194;SDS011;37259;49.972;19.850;2023-06-22T04:47:31;10.3;;;7.4;;
51194;SDS011;37259;49.972;19.850;2023-06-22T04:48:31;10.3;;;7.4;;
51194;SDS011;37259;49.972;19.850;2023-06-22T04:49:31;10.3;;;7.4;;
51194;SDS011;37259;49.972;19.850;2023-06-22T04:50:31;10.3;;;7.4;;
51194;SDS011;37259;49.972;19.850;2023-06-22T04:51:31;10.3;;;7.4;;
51194;SDS011;37259;49.972;19.850;2023-06-22T04:52:31;10.3;;;7.4;;
51194;SDS011;37259;49.972;19.850;2023-06-22T04:53:31;10.3;;;7.4;;
51194;SDS011;37259;49.972;19.850;2023-06-22T04:54:31;10.3;;;7.4;;
51194;SDS011;37259;49.972;19.850;2023-06-22T04:55:31;10.3;;;7.4;;
51194;SDS011;37259;49.972;19.850;2023-06-22T04:56:31;10.3;;;7.4;;
51194;SDS011;37259;49.972;19.850;2023-06-22T04:57:31;10.3;;;7.4;;
51194;SDS011;37259;49.972;19.850;2023-06-22T04:58:31;10.3;;;7.4;;
51194;SDS011;37259;49.972;19.850;2023-06-22T04:59:31;10.3;;;7.4;;
51194;SDS011;37259;49.972;19.850;2023-06-22T05:00:31;10.3;;;7.4;;
51194;SDS011;37259;49.972;19.850;2023-06-22T05:01:31;10.3;;;7.4;;
51194;SDS011;37259;49.972;19.850;2023-06-22T05:02:31;10.3;;;7.4;;
51194;SDS011;37259;49.972;19.850;2023-06-22T05:03:31;10.3;;;7.4;;
51194;SDS011;37259;49.972;19.850;2023-06-22T05:04:31;10.3;;;7.4;;
51194;SDS011;37259;49.972;19.850;2023-06-22T05:05:31;10.3;;;7.4;;
51194;SDS011;37259;49.972;19.850;2023-06-22T05:06:31;10.3;;;7.4;;
51194;SDS011;37259;49.972;19.850;2023-06-22T05:07:31;10.3;;;7.4;;
51194;SDS011;37259;49.972;19.850;2023-06-22T05:08:31;10.3;;;7.4;;
51194;SDS011;37259;49.972;19.850;2023-06-22T05:09:31;10.3;;;7.4;;
51194;SDS011;37259;49.972;19.850;2023-06-22T05:10:31;10.3;;;7.4;;
51194;SDS011;37259;49.972;19.850;2023-06-22T05:11:31;10.3;;;7.4;;
51194;SDS011;37259;49.972;19.850;2023-06-22T05:12:31;11.9;;;7.3;;
51194;SDS011;37259;49.972;19.850;2023-06-22T05:13:31;11.9;;;7.3;;
51194;SDS011;37259;49.972;19.850;2023-06-22T05:14:31;11.9;;;7.3;;
51194;SDS011;37259;49.972;19.850;2023-06-22T05:15:31;11.9;;;7.3;;
51194;SDS011;37259;49.972;19.850;2023-06-22T05:16:31;11.9;;;7.3;;
51194;SDS011;37259;49.972;19.850;2023-06-22T05:17:31;11.9;;;7.3;;
51194;SDS011;37259;49.972;19.850;2023-06-22T05:18:31;11.9;;;7.3;;
51194;SDS011;37259;49.972;19.850;2023-06-22T05:19:31;11.9;;;7.3;;
51194;SDS011;37259;49.972;19.850;2023-06-22T05:20:31;11.9;;;7.3;;
51194;SDS011;37259;49.972;19.850;2023-06-22T05:21:32;11.9;;;7.3;;
51194;SDS011;37259;49.972;19.850;2023-06-22T05:22:31;11.9;;;7.3;;
51194;SDS011;37259;49.972;19.850;2023-06-22T05:23:31;11.9;;;7.3;;
51194;SDS011;37259;49.972;19.850;2023-06-22T05:24:31;11.9;;;7.3;;
51194;SDS011;37259;49.972;19.850;2023-06-22T05:25:31;11.9;;;7.3;;
51194;SDS011;37259;49.972;19.850;2023-06-22T05:26:31;11.9;;;7.3;;
51194;SDS011;37259;49.972;19.850;2023-06-22T05:27:31;11.9;;;7.3;;
51194;SDS011;37259;49.972;19.850;2023-06-22T05:28:31;11.9;;;7.3;;
51194;SDS011;37259;49.972;19.850;2023-06-22T05:29:31;11.9;;;7.3;;
51194;SDS011;37259;49.972;19.850;2023-06-22T05:30:31;11.9;;;7.3;;
51194;SDS011;37259;49.972;19.850;2023-06-22T05:31:31;11.9;;;7.3;;
51194;SDS011;37259;49.972;19.850;2023-06-22T05:32:31;11.9;;;7.3;;
51194;SDS011;37259;49.972;19.850;2023-06-22T05:33:31;11.9;;;7.3;;
51194;SDS011;37259;49.972;19.850;2023-06-22T05:34:31;11.9;;;7.3;;
51194;SDS011;37259;49.972;19.850;2023-06-22T05:35:31;11.9;;;7.3;;
51194;SDS011;37259;49.972;19.850;2023-06-22T05:36:31;11.9;;;7.3;;
51194;SDS011;37259;49.972;19.850;2023-06-22T05:37:31;11.9;;;7.3;;
51194;SDS011;37259;49.972;19.850;2023-06-22T05:38:31;11.9;;;7.3;;
51194;SDS011;37259;49.972;19.850;2023-06-22T05:39:31;11.9;;;7.3;;
51194;SDS011;37259;49.972;19.850;2023-06-22T05:40:31;11.9;;;7.3;;
51194;SDS011;37259;49.972;19.850;2023-06-22T05:41:31;11.9;;;7.3;;
51194;SDS011;37259;49.972;19.850;2023-06-22T05:42:31;13.9;;;7.8;;
51194;SDS011;37259;49.972;19.850;2023-06-22T05:43:31;13.9;;;7.8;;
51194;SDS011;37259;49.972;19.850;2023-06-22T05:44:31;13.9;;;7.8;;
51194;SDS011;37259;49.972;19.850;2023-06-22T05:45:31;13.9;;;7.8;;
51194;SDS011;37259;49.972;19.850;2023-06-22T05:46:31;13.9;;;7.8;;
51194;SDS011;37259;49.972;19.850;2023-06-22T05:47:31;13.9;;;7.8;;
51194;SDS011;37259;49.972;19.850;2023-06-22T05:48:31;13.9;;;7.8;;
51194;SDS011;37259;49.972;19.850;2023-06-22T05:49:31;13.9;;;7.8;;
51194;SDS011;37259;49.972;19.850;2023-06-22T05:50:31;13.9;;;7.8;;
51194;SDS011;37259;49.972;19.850;2023-06-22T05:51:31;13.9;;;7.8;;
51194;SDS011;37259;49.972;19.850;2023-06-22T05:52:31;13.9;;;7.8;;
51194;SDS011;37259;49.972;19.850;2023-06-22T05:53:31;13.9;;;7.8;;
51194;SDS011;37259;49.972;19.850;2023-06-22T05:54:31;13.9;;;7.8;;
51194;SDS011;37259;49.972;19.850;2023-06-22T05:55:31;13.9;;;7.8;;
51194;SDS011;37259;49.972;19.850;2023-06-22T05:56:31;13.9;;;7.8;;
51194;SDS011;37259;49.972;19.850;2023-06-22T05:57:31;13.9;;;7.8;;
51194;SDS011;37259;49.972;19.850;2023-06-22T05:58:31;13.9;;;7.8;;
51194;SDS011;37259;49.972;19.850;2023-06-22T05:59:31;13.9;;;7.8;;
51194;SDS011;37259;49.972;19.850;2023-06-22T06:00:31;13.9;;;7.8;;
51194;SDS011;37259;49.972;19.850;2023-06-22T06:01:31;13.9;;;7.8;;
51194;SDS011;37259;49.972;19.850;2023-06-22T06:02:31;13.9;;;7.8;;
51194;SDS011;37259;49.972;19.850;2023-06-22T06:03:31;13.9;;;7.8;;
51194;SDS011;37259;49.972;19.850;2023-06-22T06:04:31;13.9;;;7.8;;
51194;SDS011;37259;49.972;19.850;2023-06-22T06:05:31;13.9;;;7.8;;
51194;SDS011;37259;49.972;19.850;2023-06-22T06:06:31;13.9;;;7.8;;